sensor_id;sensor_type;location;lat;lon;timestamp;temperature;humidity
70234;DHT22;75981;42.636;23.376;2024-02-21T00:00:37;6.63;71.76
70234;DHT22;75981;42.636;23.376;2024-02-21T00:03:04;6.68;71.72
70234;DHT22;75981;42.636;23.376;2024-02-21T00:05:30;6.71;71.45
70234;DHT22;75981;42.636;23.376;2024-02-21T00:07:55;6.55;71.75
70234;DHT22;75981;42.636;23.376;2024-02-21T00:10:21;6.62;71.44
70234;DHT22;75981;42.636;23.376;2024-02-21T00:12:46;6.68;71.45
70234;DHT22;75981;42.636;23.376;2024-02-21T00:15:12;6.80;71.10
70234;DHT22;75981;42.636;23.376;2024-02-21T00:17:40;6.56;71.32
70234;DHT22;75981;42.636;23.376;2024-02-21T00:20:07;6.55;71.98
70234;DHT22;75981;42.636;23.376;2024-02-21T00:22:32;6.62;71.55
70234;DHT22;75981;42.636;23.376;2024-02-21T00:24:59;6.61;71.68
70234;DHT22;75981;42.636;23.376;2024-02-21T00:27:24;6.46;72.14
70234;DHT22;75981;42.636;23.376;2024-02-21T00:29:49;6.65;71.72
70234;DHT22;75981;42.636;23.376;2024-02-21T00:32:15;6.36;72.13
70234;DHT22;75981;42.636;23.376;2024-02-21T00:34:41;6.50;71.99
70234;DHT22;75981;42.636;23.376;2024-02-21T00:37:06;6.61;71.54
70234;DHT22;75981;42.636;23.376;2024-02-21T00:39:32;6.45;71.84
70234;DHT22;75981;42.636;23.376;2024-02-21T00:41:57;6.36;72.21
70234;DHT22;75981;42.636;23.376;2024-02-21T00:44:22;6.59;71.77
70234;DHT22;75981;42.636;23.376;2024-02-21T00:46:48;6.49;71.60
70234;DHT22;75981;42.636;23.376;2024-02-21T00:49:13;6.45;71.64
70234;DHT22;75981;42.636;23.376;2024-02-21T00:51:39;6.26;72.37
70234;DHT22;75981;42.636;23.376;2024-02-21T00:54:04;6.25;72.51
70234;DHT22;75981;42.636;23.376;2024-02-21T00:56:30;6.41;72.04
70234;DHT22;75981;42.636;23.376;2024-02-21T00:58:56;6.39;71.96
70234;DHT22;75981;42.636;23.376;2024-02-21T01:01:23;6.42;72.39
70234;DHT22;75981;42.636;23.376;2024-02-21T01:03:49;6.46;71.96
70234;DHT22;75981;42.636;23.376;2024-02-21T01:06:14;6.35;72.40
70234;DHT22;75981;42.636;23.376;2024-02-21T01:08:39;6.34;72.22
70234;DHT22;75981;42.636;23.376;2024-02-21T01:11:05;6.41;72.18
70234;DHT22;75981;42.636;23.376;2024-02-21T01:13:30;6.44;71.88
70234;DHT22;75981;42.636;23.376;2024-02-21T01:15:56;6.39;72.35
70234;DHT22;75981;42.636;23.376;2024-02-21T01:18:21;6.50;72.18
70234;DHT22;75981;42.636;23.376;2024-02-21T01:20:47;6.39;72.28
70234;DHT22;75981;42.636;23.376;2024-02-21T01:23:12;6.46;72.13
70234;DHT22;75981;42.636;23.376;2024-02-21T01:25:37;6.32;72.57
70234;DHT22;75981;42.636;23.376;2024-02-21T01:28:03;6.48;72.04
70234;DHT22;75981;42.636;23.376;2024-02-21T01:30:28;6.48;71.93
70234;DHT22;75981;42.636;23.376;2024-02-21T01:32:54;6.46;72.24
70234;DHT22;75981;42.636;23.376;2024-02-21T01:35:19;6.49;71.77
70234;DHT22;75981;42.636;23.376;2024-02-21T01:37:45;6.52;71.61
70234;DHT22;75981;42.636;23.376;2024-02-21T01:40:11;6.59;71.37
70234;DHT22;75981;42.636;23.376;2024-02-21T01:42:39;6.71;71.30
70234;DHT22;75981;42.636;23.376;2024-02-21T01:45:08;6.76;70.52
70234;DHT22;75981;42.636;23.376;2024-02-21T01:47:34;6.75;70.81
70234;DHT22;75981;42.636;23.376;2024-02-21T01:50:01;6.63;71.02
70234;DHT22;75981;42.636;23.376;2024-02-21T01:52:28;6.69;71.00
70234;DHT22;75981;42.636;23.376;2024-02-21T01:54:54;6.92;69.99
70234;DHT22;75981;42.636;23.376;2024-02-21T01:57:20;6.82;70.38
70234;DHT22;75981;42.636;23.376;2024-02-21T01:59:45;6.80;70.08
70234;DHT22;75981;42.636;23.376;2024-02-21T02:02:11;7.05;69.44
70234;DHT22;75981;42.636;23.376;2024-02-21T02:04:41;6.92;69.43
70234;DHT22;75981;42.636;23.376;2024-02-21T02:07:07;6.96;69.56
70234;DHT22;75981;42.636;23.376;2024-02-21T02:09:32;6.90;69.61
70234;DHT22;75981;42.636;23.376;2024-02-21T02:11:58;6.93;69.37
70234;DHT22;75981;42.636;23.376;2024-02-21T02:14:25;6.97;69.15
70234;DHT22;75981;42.636;23.376;2024-02-21T02:16:50;6.94;69.16
70234;DHT22;75981;42.636;23.376;2024-02-21T02:19:16;6.87;69.01
70234;DHT22;75981;42.636;23.376;2024-02-21T02:21:46;6.87;68.90
70234;DHT22;75981;42.636;23.376;2024-02-21T02:24:13;6.80;68.86
70234;DHT22;75981;42.636;23.376;2024-02-21T02:26:39;6.83;68.84
70234;DHT22;75981;42.636;23.376;2024-02-21T02:29:05;6.80;69.50
70234;DHT22;75981;42.636;23.376;2024-02-21T02:31:30;6.76;69.38
70234;DHT22;75981;42.636;23.376;2024-02-21T02:33:56;6.75;69.75
70234;DHT22;75981;42.636;23.376;2024-02-21T02:36:21;6.71;69.84
70234;DHT22;75981;42.636;23.376;2024-02-21T02:38:47;6.59;70.08
70234;DHT22;75981;42.636;23.376;2024-02-21T02:41:12;6.87;69.01
70234;DHT22;75981;42.636;23.376;2024-02-21T02:43:37;6.76;69.51
70234;DHT22;75981;42.636;23.376;2024-02-21T02:46:03;6.76;69.61
70234;DHT22;75981;42.636;23.376;2024-02-21T02:48:29;6.94;69.32
70234;DHT22;75981;42.636;23.376;2024-02-21T02:50:54;7.10;68.62
70234;DHT22;75981;42.636;23.376;2024-02-21T02:53:20;7.18;68.15
70234;DHT22;75981;42.636;23.376;2024-02-21T02:55:45;7.20;67.97
70234;DHT22;75981;42.636;23.376;2024-02-21T02:58:11;7.00;68.69
70234;DHT22;75981;42.636;23.376;2024-02-21T03:00:37;6.93;68.69
70234;DHT22;75981;42.636;23.376;2024-02-21T03:03:04;6.73;69.67
70234;DHT22;75981;42.636;23.376;2024-02-21T03:05:30;6.76;69.60
70234;DHT22;75981;42.636;23.376;2024-02-21T03:07:55;6.73;69.91
70234;DHT22;75981;42.636;23.376;2024-02-21T03:10:21;6.89;69.36
70234;DHT22;75981;42.636;23.376;2024-02-21T03:12:47;7.07;69.14
70234;DHT22;75981;42.636;23.376;2024-02-21T03:15:13;7.00;69.12
70234;DHT22;75981;42.636;23.376;2024-02-21T03:17:39;6.96;69.30
70234;DHT22;75981;42.636;23.376;2024-02-21T03:20:05;6.99;69.29
70234;DHT22;75981;42.636;23.376;2024-02-21T03:22:33;6.92;69.19
70234;DHT22;75981;42.636;23.376;2024-02-21T03:24:59;6.97;69.33
70234;DHT22;75981;42.636;23.376;2024-02-21T03:27:24;6.97;69.41
70234;DHT22;75981;42.636;23.376;2024-02-21T03:29:50;7.08;69.16
70234;DHT22;75981;42.636;23.376;2024-02-21T03:32:15;7.05;68.98
70234;DHT22;75981;42.636;23.376;2024-02-21T03:34:40;6.89;69.51
70234;DHT22;75981;42.636;23.376;2024-02-21T03:37:06;6.92;69.63
70234;DHT22;75981;42.636;23.376;2024-02-21T03:39:31;6.96;69.23
70234;DHT22;75981;42.636;23.376;2024-02-21T03:41:58;6.84;69.33
70234;DHT22;75981;42.636;23.376;2024-02-21T03:44:25;6.73;69.75
70234;DHT22;75981;42.636;23.376;2024-02-21T03:46:51;6.62;70.53
70234;DHT22;75981;42.636;23.376;2024-02-21T03:49:16;6.68;70.16
70234;DHT22;75981;42.636;23.376;2024-02-21T03:51:43;6.68;70.00
70234;DHT22;75981;42.636;23.376;2024-02-21T03:54:08;6.73;69.67
70234;DHT22;75981;42.636;23.376;2024-02-21T03:56:37;6.72;69.93
70234;DHT22;75981;42.636;23.376;2024-02-21T03:59:05;6.68;70.01
70234;DHT22;75981;42.636;23.376;2024-02-21T04:01:31;6.66;69.78
70234;DHT22;75981;42.636;23.376;2024-02-21T04:03:56;6.79;69.61
70234;DHT22;75981;42.636;23.376;2024-02-21T04:06:22;6.83;69.66
70234;DHT22;75981;42.636;23.376;2024-02-21T04:08:47;6.72;69.55
70234;DHT22;75981;42.636;23.376;2024-02-21T04:11:13;6.80;69.88
70234;DHT22;75981;42.636;23.376;2024-02-21T04:13:41;6.72;69.80
70234;DHT22;75981;42.636;23.376;2024-02-21T04:16:07;6.65;70.05
70234;DHT22;75981;42.636;23.376;2024-02-21T04:18:34;6.75;70.23
70234;DHT22;75981;42.636;23.376;2024-02-21T04:21:00;6.71;69.99
70234;DHT22;75981;42.636;23.376;2024-02-21T04:23:25;6.75;69.82
70234;DHT22;75981;42.636;23.376;2024-02-21T04:25:51;6.71;69.79
70234;DHT22;75981;42.636;23.376;2024-02-21T04:28:16;6.68;69.98
70234;DHT22;75981;42.636;23.376;2024-02-21T04:30:43;6.73;69.99
70234;DHT22;75981;42.636;23.376;2024-02-21T04:33:08;6.82;69.70
70234;DHT22;75981;42.636;23.376;2024-02-21T04:35:36;6.72;69.96
70234;DHT22;75981;42.636;23.376;2024-02-21T04:38:02;6.69;69.77
70234;DHT22;75981;42.636;23.376;2024-02-21T04:40:27;6.69;69.79
70234;DHT22;75981;42.636;23.376;2024-02-21T04:42:53;6.59;70.08
70234;DHT22;75981;42.636;23.376;2024-02-21T04:45:19;6.48;70.37
70234;DHT22;75981;42.636;23.376;2024-02-21T04:47:44;6.48;70.36
70234;DHT22;75981;42.636;23.376;2024-02-21T04:50:10;6.56;70.11
70234;DHT22;75981;42.636;23.376;2024-02-21T04:52:35;6.56;70.02
70234;DHT22;75981;42.636;23.376;2024-02-21T04:55:00;6.71;69.37
70234;DHT22;75981;42.636;23.376;2024-02-21T04:57:26;6.79;69.11
70234;DHT22;75981;42.636;23.376;2024-02-21T04:59:51;6.79;69.00
70234;DHT22;75981;42.636;23.376;2024-02-21T05:02:17;6.72;69.34
70234;DHT22;75981;42.636;23.376;2024-02-21T05:04:43;6.97;68.62
70234;DHT22;75981;42.636;23.376;2024-02-21T05:07:09;7.01;68.21
70234;DHT22;75981;42.636;23.376;2024-02-21T05:09:36;6.80;68.63
70234;DHT22;75981;42.636;23.376;2024-02-21T05:12:01;7.07;67.86
70234;DHT22;75981;42.636;23.376;2024-02-21T05:14:27;7.11;67.80
70234;DHT22;75981;42.636;23.376;2024-02-21T05:16:53;7.14;67.61
70234;DHT22;75981;42.636;23.376;2024-02-21T05:19:21;7.05;67.49
70234;DHT22;75981;42.636;23.376;2024-02-21T05:21:50;7.15;67.59
70234;DHT22;75981;42.636;23.376;2024-02-21T05:24:15;7.13;67.56
70234;DHT22;75981;42.636;23.376;2024-02-21T05:26:41;7.24;67.26
70234;DHT22;75981;42.636;23.376;2024-02-21T05:29:09;7.32;66.96
70234;DHT22;75981;42.636;23.376;2024-02-21T05:34:16;7.30;66.81
70234;DHT22;75981;42.636;23.376;2024-02-21T05:36:41;7.44;66.47
70234;DHT22;75981;42.636;23.376;2024-02-21T05:39:07;7.48;66.40
70234;DHT22;75981;42.636;23.376;2024-02-21T05:41:32;7.36;66.65
70234;DHT22;75981;42.636;23.376;2024-02-21T05:43:58;6.99;68.18
70234;DHT22;75981;42.636;23.376;2024-02-21T05:46:23;6.57;69.78
70234;DHT22;75981;42.636;23.376;2024-02-21T05:48:49;6.71;69.85
70234;DHT22;75981;42.636;23.376;2024-02-21T05:51:15;6.65;69.85
70234;DHT22;75981;42.636;23.376;2024-02-21T05:53:40;6.71;69.52
70234;DHT22;75981;42.636;23.376;2024-02-21T05:56:13;7.11;68.22
70234;DHT22;75981;42.636;23.376;2024-02-21T05:58:39;6.99;68.27
70234;DHT22;75981;42.636;23.376;2024-02-21T06:01:04;7.01;68.48
70234;DHT22;75981;42.636;23.376;2024-02-21T06:03:32;6.59;69.81
70234;DHT22;75981;42.636;23.376;2024-02-21T06:05:58;6.48;70.24
70234;DHT22;75981;42.636;23.376;2024-02-21T06:08:23;6.49;75.15
70234;DHT22;75981;42.636;23.376;2024-02-21T06:10:48;8.00;78.45
70234;DHT22;75981;42.636;23.376;2024-02-21T06:13:17;8.38;76.64
70234;DHT22;75981;42.636;23.376;2024-02-21T06:15:42;7.61;67.43
70234;DHT22;75981;42.636;23.376;2024-02-21T06:18:13;6.99;69.75
70234;DHT22;75981;42.636;23.376;2024-02-21T06:20:39;6.63;70.43
70234;DHT22;75981;42.636;23.376;2024-02-21T06:23:06;6.72;69.73
70234;DHT22;75981;42.636;23.376;2024-02-21T06:25:32;6.26;71.09
70234;DHT22;75981;42.636;23.376;2024-02-21T06:27:57;6.25;70.36
70234;DHT22;75981;42.636;23.376;2024-02-21T06:30:22;6.49;70.27
70234;DHT22;75981;42.636;23.376;2024-02-21T06:32:48;6.79;69.26
70234;DHT22;75981;42.636;23.376;2024-02-21T06:35:13;6.45;70.07
70234;DHT22;75981;42.636;23.376;2024-02-21T06:37:39;6.46;69.99
70234;DHT22;75981;42.636;23.376;2024-02-21T06:40:05;6.63;68.92
70234;DHT22;75981;42.636;23.376;2024-02-21T06:42:30;6.49;69.74
70234;DHT22;75981;42.636;23.376;2024-02-21T06:44:56;6.17;71.10
70234;DHT22;75981;42.636;23.376;2024-02-21T06:47:22;5.81;71.80
70234;DHT22;75981;42.636;23.376;2024-02-21T06:49:51;5.87;72.14
70234;DHT22;75981;42.636;23.376;2024-02-21T06:52:19;6.34;70.60
70234;DHT22;75981;42.636;23.376;2024-02-21T06:54:46;6.34;70.74
70234;DHT22;75981;42.636;23.376;2024-02-21T06:57:13;6.50;70.53
70234;DHT22;75981;42.636;23.376;2024-02-21T06:59:40;6.53;70.62
70234;DHT22;75981;42.636;23.376;2024-02-21T07:02:05;6.77;69.95
70234;DHT22;75981;42.636;23.376;2024-02-21T07:04:30;6.90;69.73
70234;DHT22;75981;42.636;23.376;2024-02-21T07:06:56;6.69;70.21
70234;DHT22;75981;42.636;23.376;2024-02-21T07:09:21;6.72;69.96
70234;DHT22;75981;42.636;23.376;2024-02-21T07:11:47;7.13;69.53
70234;DHT22;75981;42.636;23.376;2024-02-21T07:14:14;7.36;68.24
70234;DHT22;75981;42.636;23.376;2024-02-21T07:16:40;7.11;69.07
70234;DHT22;75981;42.636;23.376;2024-02-21T07:19:06;7.44;68.38
70234;DHT22;75981;42.636;23.376;2024-02-21T07:21:31;7.50;68.35
70234;DHT22;75981;42.636;23.376;2024-02-21T07:23:57;7.48;68.38
70234;DHT22;75981;42.636;23.376;2024-02-21T07:26:22;7.56;67.70
70234;DHT22;75981;42.636;23.376;2024-02-21T07:28:47;7.66;66.83
70234;DHT22;75981;42.636;23.376;2024-02-21T07:31:13;7.82;67.47
70234;DHT22;75981;42.636;23.376;2024-02-21T07:33:38;7.89;66.83
70234;DHT22;75981;42.636;23.376;2024-02-21T07:36:09;7.92;66.24
70234;DHT22;75981;42.636;23.376;2024-02-21T07:38:35;8.02;65.78
70234;DHT22;75981;42.636;23.376;2024-02-21T07:41:00;7.93;66.30
70234;DHT22;75981;42.636;23.376;2024-02-21T07:43:26;8.06;65.56
70234;DHT22;75981;42.636;23.376;2024-02-21T07:45:52;7.96;65.61
70234;DHT22;75981;42.636;23.376;2024-02-21T07:48:18;7.93;65.49
70234;DHT22;75981;42.636;23.376;2024-02-21T07:50:44;7.96;65.59
70234;DHT22;75981;42.636;23.376;2024-02-21T07:53:10;8.04;65.68
70234;DHT22;75981;42.636;23.376;2024-02-21T07:55:35;8.06;65.15
70234;DHT22;75981;42.636;23.376;2024-02-21T07:58:00;8.12;65.36
70234;DHT22;75981;42.636;23.376;2024-02-21T08:00:26;8.07;65.78
70234;DHT22;75981;42.636;23.376;2024-02-21T08:02:51;8.16;65.12
70234;DHT22;75981;42.636;23.376;2024-02-21T08:05:17;8.20;65.26
70234;DHT22;75981;42.636;23.376;2024-02-21T08:07:42;8.29;65.05
70234;DHT22;75981;42.636;23.376;2024-02-21T08:10:08;8.40;64.61
70234;DHT22;75981;42.636;23.376;2024-02-21T08:12:34;8.38;64.25
70234;DHT22;75981;42.636;23.376;2024-02-21T08:15:00;8.41;64.15
70234;DHT22;75981;42.636;23.376;2024-02-21T08:17:25;8.26;64.51
70234;DHT22;75981;42.636;23.376;2024-02-21T08:19:51;8.37;64.23
70234;DHT22;75981;42.636;23.376;2024-02-21T08:22:16;8.34;64.49
70234;DHT22;75981;42.636;23.376;2024-02-21T08:24:41;8.45;64.35
70234;DHT22;75981;42.636;23.376;2024-02-21T08:27:07;8.52;64.00
70234;DHT22;75981;42.636;23.376;2024-02-21T08:29:32;8.51;63.43
70234;DHT22;75981;42.636;23.376;2024-02-21T08:31:58;8.44;63.79
70234;DHT22;75981;42.636;23.376;2024-02-21T08:34:23;8.76;63.37
70234;DHT22;75981;42.636;23.376;2024-02-21T08:36:49;8.69;63.27
70234;DHT22;75981;42.636;23.376;2024-02-21T08:39:15;8.76;62.95
70234;DHT22;75981;42.636;23.376;2024-02-21T08:41:43;8.92;62.32
70234;DHT22;75981;42.636;23.376;2024-02-21T08:44:08;8.93;61.81
70234;DHT22;75981;42.636;23.376;2024-02-21T08:46:34;9.06;61.52
70234;DHT22;75981;42.636;23.376;2024-02-21T08:48:59;8.88;61.85
70234;DHT22;75981;42.636;23.376;2024-02-21T08:51:25;9.06;61.67
70234;DHT22;75981;42.636;23.376;2024-02-21T08:53:51;9.16;61.83
70234;DHT22;75981;42.636;23.376;2024-02-21T08:56:19;9.32;61.81
70234;DHT22;75981;42.636;23.376;2024-02-21T08:58:46;9.46;60.52
70234;DHT22;75981;42.636;23.376;2024-02-21T09:01:12;9.50;60.58
70234;DHT22;75981;42.636;23.376;2024-02-21T09:03:38;9.24;60.55
70234;DHT22;75981;42.636;23.376;2024-02-21T09:06:05;9.36;60.41
70234;DHT22;75981;42.636;23.376;2024-02-21T09:08:31;9.20;60.44
70234;DHT22;75981;42.636;23.376;2024-02-21T09:10:56;9.08;60.40
70234;DHT22;75981;42.636;23.376;2024-02-21T09:13:22;9.03;60.30
70234;DHT22;75981;42.636;23.376;2024-02-21T09:15:48;8.85;60.00
70234;DHT22;75981;42.636;23.376;2024-02-21T09:18:15;8.88;59.80
70234;DHT22;75981;42.636;23.376;2024-02-21T09:20:41;9.02;60.06
70234;DHT22;75981;42.636;23.376;2024-02-21T09:23:06;9.08;59.88
70234;DHT22;75981;42.636;23.376;2024-02-21T09:25:32;9.19;59.84
70234;DHT22;75981;42.636;23.376;2024-02-21T09:27:57;9.29;59.22
70234;DHT22;75981;42.636;23.376;2024-02-21T09:30:24;9.29;59.40
70234;DHT22;75981;42.636;23.376;2024-02-21T09:32:49;9.13;59.46
70234;DHT22;75981;42.636;23.376;2024-02-21T09:35:15;9.34;59.35
70234;DHT22;75981;42.636;23.376;2024-02-21T09:37:40;9.41;58.90
70234;DHT22;75981;42.636;23.376;2024-02-21T09:40:06;9.46;58.97
70234;DHT22;75981;42.636;23.376;2024-02-21T09:42:38;9.65;59.77
70234;DHT22;75981;42.636;23.376;2024-02-21T09:45:22;9.64;59.92
70234;DHT22;75981;42.636;23.376;2024-02-21T09:50:27;9.80;59.55
70234;DHT22;75981;42.636;23.376;2024-02-21T09:52:54;9.80;59.51
70234;DHT22;75981;42.636;23.376;2024-02-21T09:55:21;9.91;59.63
70234;DHT22;75981;42.636;23.376;2024-02-21T09:57:47;9.90;59.28
70234;DHT22;75981;42.636;23.376;2024-02-21T10:00:14;10.09;59.30
70234;DHT22;75981;42.636;23.376;2024-02-21T10:02:47;10.06;59.03
70234;DHT22;75981;42.636;23.376;2024-02-21T10:05:14;9.95;58.67
70234;DHT22;75981;42.636;23.376;2024-02-21T10:07:40;9.99;58.23
70234;DHT22;75981;42.636;23.376;2024-02-21T10:10:05;9.95;58.21
70234;DHT22;75981;42.636;23.376;2024-02-21T10:12:31;10.02;57.91
70234;DHT22;75981;42.636;23.376;2024-02-21T10:15:04;10.02;57.92
70234;DHT22;75981;42.636;23.376;2024-02-21T10:17:30;10.01;57.32
70234;DHT22;75981;42.636;23.376;2024-02-21T10:20:09;10.16;56.83
70234;DHT22;75981;42.636;23.376;2024-02-21T10:22:35;10.20;56.72
70234;DHT22;75981;42.636;23.376;2024-02-21T10:25:13;10.30;56.57
70234;DHT22;75981;42.636;23.376;2024-02-21T10:27:39;10.50;56.25
70234;DHT22;75981;42.636;23.376;2024-02-21T10:30:13;10.52;55.41
70234;DHT22;75981;42.636;23.376;2024-02-21T10:32:52;10.45;55.48
70234;DHT22;75981;42.636;23.376;2024-02-21T10:35:32;10.28;55.39
70234;DHT22;75981;42.636;23.376;2024-02-21T10:37:59;10.45;55.75
70234;DHT22;75981;42.636;23.376;2024-02-21T10:40:28;10.66;55.61
70234;DHT22;75981;42.636;23.376;2024-02-21T10:43:01;10.35;56.15
70234;DHT22;75981;42.636;23.376;2024-02-21T10:45:31;10.61;55.61
70234;DHT22;75981;42.636;23.376;2024-02-21T10:48:27;10.74;55.17
70234;DHT22;75981;42.636;23.376;2024-02-21T10:51:03;11.01;54.06
70234;DHT22;75981;42.636;23.376;2024-02-21T10:58:48;11.25;53.13
70234;DHT22;75981;42.636;23.376;2024-02-21T11:01:14;11.45;52.53
70234;DHT22;75981;42.636;23.376;2024-02-21T11:03:44;11.48;51.96
70234;DHT22;75981;42.636;23.376;2024-02-21T11:06:11;11.24;51.39
70234;DHT22;75981;42.636;23.376;2024-02-21T11:08:37;11.07;51.25
70234;DHT22;75981;42.636;23.376;2024-02-21T11:11:04;11.07;51.37
70234;DHT22;75981;42.636;23.376;2024-02-21T11:13:31;11.29;50.96
70234;DHT22;75981;42.636;23.376;2024-02-21T11:16:07;11.83;49.41
70234;DHT22;75981;42.636;23.376;2024-02-21T11:18:34;11.67;48.35
70234;DHT22;75981;42.636;23.376;2024-02-21T11:20:59;12.04;47.71
70234;DHT22;75981;42.636;23.376;2024-02-21T11:23:26;11.72;48.06
70234;DHT22;75981;42.636;23.376;2024-02-21T11:25:52;12.12;47.54
70234;DHT22;75981;42.636;23.376;2024-02-21T11:28:25;12.88;46.60
70234;DHT22;75981;42.636;23.376;2024-02-21T11:30:50;12.68;46.09
70234;DHT22;75981;42.636;23.376;2024-02-21T11:33:16;11.69;48.88
70234;DHT22;75981;42.636;23.376;2024-02-21T11:35:42;11.80;48.91
70234;DHT22;75981;42.636;23.376;2024-02-21T11:38:14;12.34;46.94
70234;DHT22;75981;42.636;23.376;2024-02-21T11:40:46;13.07;45.80
70234;DHT22;75981;42.636;23.376;2024-02-21T11:43:12;12.45;46.96
70234;DHT22;75981;42.636;23.376;2024-02-21T11:45:37;11.90;48.09
70234;DHT22;75981;42.636;23.376;2024-02-21T11:48:06;11.82;48.36
70234;DHT22;75981;42.636;23.376;2024-02-21T11:50:32;11.63;47.88
70234;DHT22;75981;42.636;23.376;2024-02-21T11:52:57;11.38;48.74
70234;DHT22;75981;42.636;23.376;2024-02-21T11:55:23;11.51;48.46
70234;DHT22;75981;42.636;23.376;2024-02-21T11:57:49;11.22;49.35
70234;DHT22;75981;42.636;23.376;2024-02-21T12:00:15;11.06;49.85
70234;DHT22;75981;42.636;23.376;2024-02-21T12:02:42;11.14;49.62
70234;DHT22;75981;42.636;23.376;2024-02-21T12:05:08;11.00;49.66
70234;DHT22;75981;42.636;23.376;2024-02-21T12:07:36;10.83;49.17
70234;DHT22;75981;42.636;23.376;2024-02-21T12:10:02;10.60;49.36
70234;DHT22;75981;42.636;23.376;2024-02-21T12:12:28;10.67;49.80
70234;DHT22;75981;42.636;23.376;2024-02-21T12:14:57;10.49;50.13
70234;DHT22;75981;42.636;23.376;2024-02-21T12:17:23;10.29;50.75
70234;DHT22;75981;42.636;23.376;2024-02-21T12:19:50;10.36;51.21
70234;DHT22;75981;42.636;23.376;2024-02-21T12:22:18;10.39;50.81
70234;DHT22;75981;42.636;23.376;2024-02-21T12:24:43;10.42;50.71
70234;DHT22;75981;42.636;23.376;2024-02-21T12:27:12;10.46;50.48
70234;DHT22;75981;42.636;23.376;2024-02-21T12:29:37;10.50;50.47
70234;DHT22;75981;42.636;23.376;2024-02-21T12:32:03;10.46;50.77
70234;DHT22;75981;42.636;23.376;2024-02-21T12:34:29;10.40;51.11
70234;DHT22;75981;42.636;23.376;2024-02-21T12:36:58;10.28;51.63
70234;DHT22;75981;42.636;23.376;2024-02-21T12:39:24;9.95;53.00
70234;DHT22;75981;42.636;23.376;2024-02-21T12:41:52;10.02;53.07
70234;DHT22;75981;42.636;23.376;2024-02-21T12:44:19;9.92;52.51
70234;DHT22;75981;42.636;23.376;2024-02-21T12:46:44;10.06;51.98
70234;DHT22;75981;42.636;23.376;2024-02-21T12:49:10;10.01;51.50
70234;DHT22;75981;42.636;23.376;2024-02-21T12:51:36;9.94;51.84
70234;DHT22;75981;42.636;23.376;2024-02-21T12:54:01;10.08;52.32
70234;DHT22;75981;42.636;23.376;2024-02-21T12:56:29;10.06;51.77
70234;DHT22;75981;42.636;23.376;2024-02-21T12:58:57;10.09;51.79
70234;DHT22;75981;42.636;23.376;2024-02-21T13:01:23;9.97;51.67
70234;DHT22;75981;42.636;23.376;2024-02-21T13:03:48;10.05;52.01
70234;DHT22;75981;42.636;23.376;2024-02-21T13:06:14;9.97;52.13
70234;DHT22;75981;42.636;23.376;2024-02-21T13:08:39;9.99;52.46
70234;DHT22;75981;42.636;23.376;2024-02-21T13:11:05;10.05;52.20
70234;DHT22;75981;42.636;23.376;2024-02-21T13:13:31;10.15;51.94
70234;DHT22;75981;42.636;23.376;2024-02-21T13:15:57;10.20;51.73
70234;DHT22;75981;42.636;23.376;2024-02-21T13:18:23;10.28;51.65
70234;DHT22;75981;42.636;23.376;2024-02-21T13:20:48;10.18;52.04
70234;DHT22;75981;42.636;23.376;2024-02-21T13:23:14;10.13;52.64
70234;DHT22;75981;42.636;23.376;2024-02-21T13:25:39;10.23;53.43
70234;DHT22;75981;42.636;23.376;2024-02-21T13:28:05;10.08;54.66
70234;DHT22;75981;42.636;23.376;2024-02-21T13:30:31;10.13;54.75
70234;DHT22;75981;42.636;23.376;2024-02-21T13:32:56;10.28;54.72
70234;DHT22;75981;42.636;23.376;2024-02-21T13:35:21;10.05;55.59
70234;DHT22;75981;42.636;23.376;2024-02-21T13:37:47;10.02;55.74
70234;DHT22;75981;42.636;23.376;2024-02-21T13:40:12;9.99;56.55
70234;DHT22;75981;42.636;23.376;2024-02-21T13:42:39;9.85;56.94
70234;DHT22;75981;42.636;23.376;2024-02-21T13:45:06;9.64;57.43
70234;DHT22;75981;42.636;23.376;2024-02-21T13:47:32;9.70;57.35
70234;DHT22;75981;42.636;23.376;2024-02-21T13:49:58;9.74;57.57
70234;DHT22;75981;42.636;23.376;2024-02-21T13:52:23;9.78;57.26
70234;DHT22;75981;42.636;23.376;2024-02-21T13:54:52;9.74;56.79
70234;DHT22;75981;42.636;23.376;2024-02-21T13:57:17;9.73;55.69
70234;DHT22;75981;42.636;23.376;2024-02-21T13:59:43;9.71;55.60
70234;DHT22;75981;42.636;23.376;2024-02-21T14:02:08;9.70;55.52
70234;DHT22;75981;42.636;23.376;2024-02-21T14:04:34;9.74;54.70
70234;DHT22;75981;42.636;23.376;2024-02-21T14:07:00;9.78;54.44
70234;DHT22;75981;42.636;23.376;2024-02-21T14:09:26;9.69;54.75
70234;DHT22;75981;42.636;23.376;2024-02-21T14:11:51;9.77;55.65
70234;DHT22;75981;42.636;23.376;2024-02-21T14:14:17;9.69;57.01
70234;DHT22;75981;42.636;23.376;2024-02-21T14:16:42;9.61;57.89
70234;DHT22;75981;42.636;23.376;2024-02-21T14:19:08;9.47;59.30
70234;DHT22;75981;42.636;23.376;2024-02-21T14:21:34;9.64;59.35
70234;DHT22;75981;42.636;23.376;2024-02-21T14:24:03;9.69;58.77
70234;DHT22;75981;42.636;23.376;2024-02-21T14:26:29;9.75;58.64
70234;DHT22;75981;42.636;23.376;2024-02-21T14:28:56;9.82;58.76
70234;DHT22;75981;42.636;23.376;2024-02-21T14:31:22;9.69;59.52
70234;DHT22;75981;42.636;23.376;2024-02-21T14:33:47;9.73;58.99
70234;DHT22;75981;42.636;23.376;2024-02-21T14:36:13;9.77;58.47
70234;DHT22;75981;42.636;23.376;2024-02-21T14:38:40;9.71;57.17
70234;DHT22;75981;42.636;23.376;2024-02-21T14:41:07;9.50;56.97
70234;DHT22;75981;42.636;23.376;2024-02-21T14:43:32;9.40;56.24
70234;DHT22;75981;42.636;23.376;2024-02-21T14:45:59;9.48;56.37
70234;DHT22;75981;42.636;23.376;2024-02-21T14:48:25;9.47;56.35
70234;DHT22;75981;42.636;23.376;2024-02-21T14:50:51;9.48;55.96
70234;DHT22;75981;42.636;23.376;2024-02-21T14:53:16;9.47;55.63
70234;DHT22;75981;42.636;23.376;2024-02-21T14:55:42;9.54;55.03
70234;DHT22;75981;42.636;23.376;2024-02-21T14:58:08;9.50;55.38
70234;DHT22;75981;42.636;23.376;2024-02-21T15:00:33;9.48;55.46
70234;DHT22;75981;42.636;23.376;2024-02-21T15:02:59;9.40;55.81
70234;DHT22;75981;42.636;23.376;2024-02-21T15:05:25;9.46;55.89
70234;DHT22;75981;42.636;23.376;2024-02-21T15:07:51;9.71;55.94
70234;DHT22;75981;42.636;23.376;2024-02-21T15:10:18;9.67;56.04
70234;DHT22;75981;42.636;23.376;2024-02-21T15:12:47;9.60;56.08
70234;DHT22;75981;42.636;23.376;2024-02-21T15:15:13;9.44;56.91
70234;DHT22;75981;42.636;23.376;2024-02-21T15:17:39;9.53;57.38
70234;DHT22;75981;42.636;23.376;2024-02-21T15:20:05;9.50;57.93
70234;DHT22;75981;42.636;23.376;2024-02-21T15:22:33;9.65;57.85
70234;DHT22;75981;42.636;23.376;2024-02-21T15:24:59;9.54;58.82
70234;DHT22;75981;42.636;23.376;2024-02-21T15:27:29;9.64;58.83
70234;DHT22;75981;42.636;23.376;2024-02-21T15:29:55;9.53;59.43
70234;DHT22;75981;42.636;23.376;2024-02-21T15:32:22;9.50;60.02